Impacts METAR Board
IDs:

KTPA - Tampa Intl Arpt, FL, US

Updated at: 2200 UTC 01 Mar 2021
Potential Impact None Slight Moderate High
Time 01/10Z 01/11Z 01/12Z 01/13Z 01/14Z 01/15Z 01/16Z 01/17Z 01/18Z 01/19Z 01/20Z 01/21Z 01/22Z
Temp72 72 71 73 75 77 78 82 81 82 83 82 80
Dewpt68 68 68 69 69 70 70 70 71 72 70 70 70
Altim30.07 30.08 30.09 30.10 30.12 30.12 30.12 30.11 30.08 30.06 30.04 30.03 30.03
VIS10 10 10 10 10 10 10 10 10 10 10 10 10
CIG-- -- -- -- 250 -- -- -- -- -- -- -- --
CoverCLRCLRSCTSCTBKNSCTFEWSCTSCTSCTSCTSCTFEW
FltCatVFRVFRVFRVFRVFRVFRVFRVFRVFRVFRVFRVFRVFR
WX--------------------------
WDir160140150140170190180180190200220230230
WSpd3 3 4 4 6 9 7 15 12 8 10 10 8
WGst-- -- -- -- -- -- -- -- -- -- -- -- --
Raw hourly METARs
KTPA 010953Z 16003KT 10SM CLR 22/20 A3007 RMK AO2 SLP181 T02220200
KTPA 011053Z 14003KT 10SM CLR 22/20 A3008 RMK AO2 SLP185 T02220200
KTPA 011153Z 15004KT 10SM FEW005 SCT280 22/20 A3009 RMK AO2 SLP188 T02170200 10239 20217 52010
KTPA 011253Z 14004KT 10SM FEW009 FEW024 SCT250 23/21 A3010 RMK AO2 SLP191 T02280206
KTPA 011353Z 17006KT 10SM FEW010 SCT025 BKN250 24/21 A3012 RMK AO2 SLP200 T02390206
KTPA 011453Z 19009KT 10SM SCT028 25/21 A3012 RMK AO2 SLP200 T02500211 51012 $
KTPA 011553Z 18007KT 10SM FEW030 26/21 A3012 RMK AO2 SLP200 T02560211
KTPA 011653Z 18015KT 10SM FEW024 SCT035 28/21 A3011 RMK AO2 SLP196 T02780211
KTPA 011753Z 19012KT 10SM FEW029 SCT037 27/22 A3008 RMK AO2 SLP184 T02720217 10278 20217 58016
KTPA 011853Z 20008KT 10SM SCT030 28/22 A3006 RMK AO2 SLP178 T02780222
KTPA 011953Z 22010KT 10SM SCT035 28/21 A3004 RMK AO2 SLP172 T02830211
KTPA 012053Z 23010KT 10SM FEW026 SCT035 28/21 A3003 RMK AO2 SLP169 T02780211 56015
KTPA 012153Z 23008KT 10SM FEW034 FEW250 27/21 A3003 RMK AO2 SLP169 T02670211



Page loaded:  22:21 UTC  |   02:21 PM Pacific  |   03:21 PM Mountain  |   04:21 PM Central  |   05:21 PM Eastern

 

ADVISORIES

FORECASTS

FORECASTS

OBSERVATIONS

USER TOOLS

ABOUT US